Time;durP1;ratioP1;P1;durP2;ratioP2;P2;SDS_P1;SDS_P2;PMS_P1;PMS_P2;Temp;Humidity;BMP_temperature;BMP_pressure;BME280_temperature;BME280_humidity;BME280_pressure;Samples;Min_cycle;Max_cycle;Signal;HPM_P1;HPM_P2
2023/07/31 00:02:14;;;;;;;6.68;3.35;;;;;;;13.42;100.00;96792.41;4998587;28;20570;-70
2023/07/31 00:04:40;;;;;;;5.47;3.00;;;;;;;13.39;100.00;96788.44;5002776;28;20128;-71
2023/07/31 00:07:06;;;;;;;6.97;3.03;;;;;;;13.49;100.00;96790.47;4999127;28;20472;-69
2023/07/31 00:09:33;;;;;;;7.95;3.13;;;;;;;13.64;100.00;96785.84;5003455;28;20041;-70
2023/07/31 00:11:58;;;;;;;6.07;3.28;;;;;;;13.58;100.00;96788.16;5003356;28;20038;-69
2023/07/31 00:14:24;;;;;;;5.30;3.03;;;;;;;13.60;100.00;96781.50;4996923;28;20860;-69
2023/07/31 00:16:49;;;;;;;6.00;3.10;;;;;;;13.58;100.00;96788.16;5004549;28;20120;-70
2023/07/31 00:19:14;;;;;;;7.88;3.10;;;;;;;13.57;100.00;96786.59;4998585;28;20050;-71
2023/07/31 00:21:40;;;;;;;7.95;3.10;;;;;;;13.50;100.00;96777.50;5002745;28;20499;-70
2023/07/31 00:24:05;;;;;;;4.78;3.15;;;;;;;13.41;100.00;96775.09;5000519;28;20046;-71
2023/07/31 00:26:31;;;;;;;7.45;3.53;;;;;;;13.28;100.00;96776.56;5002664;28;20141;-70
2023/07/31 00:28:56;;;;;;;10.32;3.72;;;;;;;13.24;100.00;96776.53;5004817;28;20046;-70
2023/07/31 00:31:21;;;;;;;7.03;3.30;;;;;;;13.12;100.00;96774.06;5007411;28;20054;-69
2023/07/31 00:33:47;;;;;;;6.95;2.90;;;;;;;13.05;100.00;96769.31;5003337;28;20045;-69
2023/07/31 00:36:12;;;;;;;6.18;3.08;;;;;;;12.98;100.00;96772.81;4997212;28;20041;-68
2023/07/31 00:38:37;;;;;;;5.18;3.47;;;;;;;12.93;100.00;96777.88;5003455;28;20112;-71
2023/07/31 00:41:03;;;;;;;5.28;3.08;;;;;;;12.99;100.00;96781.84;4999615;28;20104;-70
2023/07/31 00:43:28;;;;;;;6.57;3.00;;;;;;;12.84;100.00;96780.94;5000707;28;20042;-70
2023/07/31 00:45:54;;;;;;;7.18;3.53;;;;;;;12.91;100.00;96783.75;5002899;28;20054;-71
2023/07/31 00:48:19;;;;;;;4.97;2.97;;;;;;;13.16;100.00;96775.69;4996219;28;20042;-70
2023/07/31 00:50:45;;;;;;;9.45;3.17;;;;;;;13.13;100.00;96778.41;4998496;28;20496;-71
2023/07/31 00:53:10;;;;;;;9.15;2.97;;;;;;;13.26;100.00;96771.44;4997321;28;20038;-71
2023/07/31 00:55:36;;;;;;;6.57;2.90;;;;;;;13.39;100.00;96780.19;5004229;28;20526;-70
2023/07/31 00:58:01;;;;;;;6.53;3.28;;;;;;;13.45;100.00;96783.38;5002679;28;20084;-70
2023/07/31 01:00:26;;;;;;;8.07;3.10;;;;;;;13.42;100.00;96784.94;4997770;28;20042;-69
2023/07/31 01:02:52;;;;;;;7.47;3.00;;;;;;;13.62;100.00;96784.66;5001889;28;20080;-70
2023/07/31 01:05:29;;;;;;;8.25;2.90;;;;;;;13.58;100.00;96771.66;4997831;28;20041;-70
2023/07/31 01:08:32;;;;;;;7.63;2.58;;;;;;;13.41;100.00;96775.09;5001682;28;20398;-70
2023/07/31 01:11:10;;;;;;;5.82;3.13;;;;;;;13.06;100.00;96770.91;5000015;28;20069;-71
2023/07/31 01:13:35;;;;;;;5.63;3.33;;;;;;;12.69;100.00;96766.25;5000900;28;20038;-70
2023/07/31 01:16:01;;;;;;;6.60;3.88;;;;;;;12.22;100.00;96763.03;5002300;28;20045;-71
2023/07/31 01:18:26;;;;;;;7.15;4.05;;;;;;;12.16;100.00;96763.78;4997785;28;20041;-71
2023/07/31 01:21:13;;;;;;;7.20;4.03;;;;;;;12.04;100.00;96762.06;5002582;28;20041;-69
2023/07/31 01:23:58;;;;;;;6.28;3.78;;;;;;;12.02;100.00;96764.41;4991024;28;20064;-70
2023/07/31 01:26:29;;;;;;;8.02;3.88;;;;;;;12.16;100.00;96759.06;5018859;28;20064;-70
2023/07/31 01:29:07;;;;;;;7.70;4.38;;;;;;;12.41;100.00;96755.81;5016279;28;20049;-70
2023/07/31 01:31:33;;;;;;;6.78;3.83;;;;;;;12.52;100.00;96753.16;5000951;28;20137;-69
2023/07/31 01:34:01;;;;;;;6.57;3.67;;;;;;;12.60;100.00;96741.88;5002656;28;20402;-71
2023/07/31 01:36:28;;;;;;;7.70;3.33;;;;;;;12.66;100.00;96744.25;4998614;28;20128;-71
2023/07/31 01:38:59;;;;;;;7.15;3.40;;;;;;;12.59;100.00;96747.72;5001191;28;20037;-69
2023/07/31 01:41:24;;;;;;;6.93;3.50;;;;;;;12.56;100.00;96746.50;4996004;28;20969;-69
2023/07/31 01:43:49;;;;;;;6.60;3.67;;;;;;;12.53;100.00;96754.72;5001460;28;20049;-71
2023/07/31 01:46:15;;;;;;;6.72;3.13;;;;;;;12.58;100.00;96749.66;4997105;28;20157;-71
2023/07/31 01:48:40;;;;;;;4.68;3.17;;;;;;;12.63;100.00;96748.53;5002205;28;20390;-70
2023/07/31 01:51:05;;;;;;;7.30;3.17;;;;;;;12.57;100.00;96739.09;4996773;28;20045;-71
2023/07/31 01:53:31;;;;;;;4.90;2.90;;;;;;;12.55;100.00;96744.94;5000466;28;20045;-68
2023/07/31 01:55:56;;;;;;;5.57;3.30;;;;;;;12.73;100.00;96747.06;5003040;28;20095;-68
2023/07/31 01:58:22;;;;;;;5.03;2.75;;;;;;;12.80;100.00;96742.44;4995895;28;20056;-68
2023/07/31 02:00:47;;;;;;;4.72;2.88;;;;;;;12.86;100.00;96742.06;5012481;28;20033;-69
2023/07/31 02:03:13;;;;;;;9.20;3.00;;;;;;;12.77;100.00;96734.94;5009468;28;20116;-68
2023/07/31 02:05:46;;;;;;;5.75;3.08;;;;;;;12.84;100.00;96734.22;5000826;28;20061;-67
2023/07/31 02:08:11;;;;;;;10.57;3.35;;;;;;;12.95;100.00;96729.56;4995293;28;20392;-68
2023/07/31 02:10:36;;;;;;;5.25;2.60;;;;;;;13.05;100.00;96725.31;4999427;28;20107;-69
2023/07/31 02:13:03;;;;;;;10.13;3.33;;;;;;;13.18;100.00;96723.03;4999404;28;20057;-68
2023/07/31 02:15:29;;;;;;;4.95;2.95;;;;;;;13.15;100.00;96732.06;5000012;28;20505;-69
2023/07/31 02:17:55;;;;;;;5.03;2.60;;;;;;;13.24;100.00;96729.00;5001320;28;20049;-69
2023/07/31 02:20:20;;;;;;;8.88;2.58;;;;;;;13.31;100.00;96727.09;4996312;28;20042;-70
2023/07/31 02:22:45;;;;;;;4.68;2.45;;;;;;;13.30;100.00;96728.22;4998861;28;20061;-69
2023/07/31 02:25:11;;;;;;;3.35;2.55;;;;;;;13.28;100.00;96719.56;4996776;28;20042;-71
2023/07/31 02:27:36;;;;;;;8.00;2.78;;;;;;;13.19;100.00;96716.38;5000890;28;20049;-71
2023/07/31 02:30:02;;;;;;;4.50;2.88;;;;;;;13.09;100.00;96714.34;5000570;28;20052;-70
2023/07/31 02:32:27;;;;;;;4.32;2.70;;;;;;;12.93;100.00;96714.66;5011113;28;20104;-71
2023/07/31 02:34:53;;;;;;;9.35;3.40;;;;;;;12.88;100.00;96709.50;5000480;28;20046;-71
2023/07/31 02:37:18;;;;;;;5.45;2.83;;;;;;;12.75;100.00;96700.75;4996628;28;20475;-70
2023/07/31 02:39:43;;;;;;;5.45;2.58;;;;;;;12.50;100.00;96715.06;5001322;28;20073;-70
2023/07/31 02:42:09;;;;;;;4.07;2.65;;;;;;;12.27;100.00;96707.00;4996456;28;20045;-70
2023/07/31 02:44:34;;;;;;;5.13;2.38;;;;;;;12.20;100.00;96707.72;5015598;28;20041;-73
2023/07/31 02:46:59;;;;;;;6.05;3.15;;;;;;;12.17;100.00;96704.94;5015417;28;20034;-70
2023/07/31 02:49:25;;;;;;;6.32;2.80;;;;;;;12.14;100.00;96703.75;5000904;28;20132;-69
2023/07/31 02:51:50;;;;;;;4.05;2.53;;;;;;;12.08;100.00;96705.22;5000648;28;20038;-72
2023/07/31 02:54:15;;;;;;;4.90;2.92;;;;;;;11.97;100.00;96701.59;4997008;28;20038;-70
2023/07/31 02:56:41;;;;;;;6.13;3.22;;;;;;;11.97;100.00;96699.63;5000872;28;20042;-71
2023/07/31 02:59:06;;;;;;;9.88;4.03;;;;;;;11.92;100.00;96701.94;4996199;28;20081;-71
2023/07/31 03:01:32;;;;;;;5.13;3.10;;;;;;;11.86;100.00;96688.50;5002087;28;20045;-70
2023/07/31 03:03:57;;;;;;;7.80;3.00;;;;;;;11.99;100.00;96702.81;5011391;28;20041;-69
2023/07/31 03:06:22;;;;;;;10.40;3.33;;;;;;;12.15;100.00;96704.53;4993423;28;20531;-70
2023/07/31 03:08:48;;;;;;;12.60;3.40;;;;;;;12.19;100.00;96697.09;5012998;28;20136;-70
2023/07/31 03:11:13;;;;;;;5.40;2.78;;;;;;;12.25;100.00;96703.84;5009833;28;20140;-72
2023/07/31 03:13:38;;;;;;;6.72;2.97;;;;;;;12.30;100.00;96709.00;4992035;28;20629;-73
2023/07/31 03:16:04;;;;;;;4.63;2.80;;;;;;;12.37;100.00;96711.81;5001240;28;20034;-71
2023/07/31 03:18:29;;;;;;;5.30;2.85;;;;;;;12.47;100.00;96710.34;5004359;28;20049;-71
2023/07/31 03:20:55;;;;;;;5.78;2.58;;;;;;;12.49;100.00;96709.97;5003302;28;20065;-70
2023/07/31 03:23:20;;;;;;;5.68;2.53;;;;;;;12.50;100.00;96717.81;4998289;28;20038;-69
2023/07/31 03:26:15;;;;;;;8.27;2.90;;;;;;;12.55;100.00;96719.41;5004261;28;20038;-71
2023/07/31 03:28:40;;;;;;;5.88;2.90;;;;;;;12.65;100.00;96720.69;4986904;28;20434;-71
2023/07/31 03:31:08;;;;;;;5.80;2.47;;;;;;;12.61;100.00;96720.66;4998631;28;20042;-71
2023/07/31 03:33:33;;;;;;;4.40;2.28;;;;;;;12.59;100.00;96718.28;5003838;28;20099;-69
2023/07/31 03:35:58;;;;;;;6.53;3.05;;;;;;;12.58;100.00;96715.91;5002891;28;20038;-69
2023/07/31 03:38:24;;;;;;;8.45;2.78;;;;;;;12.54;100.00;96721.38;4998469;28;20037;-70
2023/07/31 03:40:49;;;;;;;4.53;2.50;;;;;;;12.51;100.00;96716.63;5004220;28;20077;-71
2023/07/31 03:43:15;;;;;;;4.25;2.65;;;;;;;12.42;100.00;96722.47;4998366;28;20149;-69
2023/07/31 03:45:40;;;;;;;6.40;3.10;;;;;;;12.21;100.00;96717.53;5013027;28;20042;-69
2023/07/31 03:48:07;;;;;;;8.68;2.95;;;;;;;12.08;100.00;96713.47;5019334;28;20505;-68
2023/07/31 03:50:33;;;;;;;9.73;3.22;;;;;;;11.93;100.00;96706.25;5022250;28;20042;-69
2023/07/31 03:52:58;;;;;;;7.00;3.20;;;;;;;11.93;100.00;96712.53;5002962;28;20041;-70
2023/07/31 03:55:23;;;;;;;4.10;2.58;;;;;;;11.96;100.00;96717.28;4998085;28;20504;-69
2023/07/31 03:57:49;;;;;;;6.97;3.08;;;;;;;12.05;100.00;96708.75;5004042;28;20049;-69
2023/07/31 04:00:14;;;;;;;4.88;3.30;;;;;;;12.16;100.00;96708.88;4998851;28;20053;-70
2023/07/31 04:02:40;;;;;;;4.10;2.88;;;;;;;12.28;100.00;96711.34;5003003;28;20038;-71
2023/07/31 04:05:06;;;;;;;12.50;2.85;;;;;;;12.27;100.00;96712.50;4998194;28;20041;-71
2023/07/31 04:07:31;;;;;;;5.20;2.97;;;;;;;12.31;100.00;96710.56;5003388;28;20064;-69
2023/07/31 04:09:57;;;;;;;8.02;2.95;;;;;;;12.39;100.00;96716.94;5003031;28;20072;-69
2023/07/31 04:12:22;;;;;;;6.45;2.67;;;;;;;12.52;100.00;96728.44;5007541;28;20205;-68
2023/07/31 04:14:48;;;;;;;8.38;2.75;;;;;;;12.55;100.00;96733.16;5003168;28;20505;-69
2023/07/31 04:17:13;;;;;;;5.38;2.60;;;;;;;12.57;100.00;96734.38;4998097;28;20038;-70
2023/07/31 04:19:39;;;;;;;5.15;2.70;;;;;;;12.58;100.00;96732.41;5002936;28;20077;-69
2023/07/31 04:22:04;;;;;;;5.50;2.88;;;;;;;12.62;100.00;96731.28;4998527;28;20538;-70
2023/07/31 04:24:29;;;;;;;6.10;3.20;;;;;;;12.68;100.00;96730.94;5001189;28;20046;-69
2023/07/31 04:26:56;;;;;;;6.65;2.85;;;;;;;12.79;100.00;96732.59;4999923;28;20042;-69
2023/07/31 04:29:21;;;;;;;8.15;3.08;;;;;;;12.79;100.00;96726.31;4997744;28;20045;-69
2023/07/31 04:31:48;;;;;;;8.98;2.70;;;;;;;12.79;100.00;96729.84;5002124;28;20045;-70
2023/07/31 04:34:13;;;;;;;9.32;2.80;;;;;;;12.89;100.00;96733.03;4997458;28;20041;-71
2023/07/31 04:36:39;;;;;;;5.63;2.85;;;;;;;12.88;100.00;96737.00;5002765;28;20111;-68
2023/07/31 04:39:04;;;;;;;6.03;3.08;;;;;;;12.94;100.00;96738.19;4997216;28;20430;-70
2023/07/31 04:41:30;;;;;;;4.70;2.67;;;;;;;13.01;100.00;96735.50;5000851;28;20053;-70
2023/07/31 04:43:55;;;;;;;4.50;2.78;;;;;;;13.12;100.00;96738.34;5001763;28;20500;-70
2023/07/31 04:46:20;;;;;;;5.57;2.58;;;;;;;13.19;100.00;96730.13;4997388;28;20046;-70
2023/07/31 04:48:46;;;;;;;5.00;2.55;;;;;;;13.32;100.00;96736.13;5002814;28;20048;-68
2023/07/31 04:51:11;;;;;;;6.50;2.80;;;;;;;13.36;100.00;96736.94;4996022;28;20069;-69
2023/07/31 04:53:38;;;;;;;6.22;3.28;;;;;;;13.17;100.00;96735.22;5001336;28;20093;-69
2023/07/31 04:56:03;;;;;;;6.25;2.55;;;;;;;13.06;100.00;96739.88;4998949;28;20065;-69
2023/07/31 04:58:29;;;;;;;7.45;3.00;;;;;;;13.12;100.00;96732.84;5001504;28;20042;-70
2023/07/31 05:00:54;;;;;;;9.63;3.08;;;;;;;12.90;100.00;96735.41;5002809;28;20042;-69
2023/07/31 05:03:20;;;;;;;6.47;3.08;;;;;;;12.55;100.00;96733.16;4996451;28;20494;-71
2023/07/31 05:05:45;;;;;;;6.13;3.40;;;;;;;12.22;100.00;96734.81;5002511;28;20104;-71
2023/07/31 05:08:10;;;;;;;6.78;4.35;;;;;;;12.23;100.00;96739.16;4997965;28;20042;-70
2023/07/31 05:10:36;;;;;;;7.60;4.03;;;;;;;12.34;100.00;96737.28;5002436;28;20076;-70
2023/07/31 05:13:01;;;;;;;5.75;3.28;;;;;;;12.66;100.00;96738.75;4999515;28;20061;-69
2023/07/31 05:15:27;;;;;;;7.25;4.00;;;;;;;13.09;100.00;96737.16;4999725;28;20041;-69
2023/07/31 05:17:52;;;;;;;7.80;3.47;;;;;;;13.56;100.00;96737.47;5003236;28;20049;-70
2023/07/31 05:20:17;;;;;;;7.22;3.20;;;;;;;13.86;100.00;96741.91;4998316;28;20072;-69
2023/07/31 05:22:43;;;;;;;6.82;3.00;;;;;;;13.80;100.00;96737.97;5002514;28;20529;-69
2023/07/31 05:25:08;;;;;;;4.07;2.95;;;;;;;14.11;100.00;96737.28;4998732;28;20037;-69
2023/07/31 05:27:34;;;;;;;5.38;3.45;;;;;;;14.28;100.00;96746.78;5002201;28;20038;-70
2023/07/31 05:29:59;;;;;;;8.05;2.90;;;;;;;14.79;100.00;96738.63;5003733;28;20046;-69
2023/07/31 05:32:24;;;;;;;6.60;2.95;;;;;;;15.23;100.00;96734.63;4999845;28;20088;-70
2023/07/31 05:34:53;;;;;;;8.27;2.50;;;;;;;15.89;100.00;96739.63;5004926;28;20371;-71
2023/07/31 05:37:19;;;;;;;4.47;2.45;;;;;;;16.39;100.00;96736.63;4999196;28;20042;-71
2023/07/31 05:39:44;;;;;;;4.95;2.40;;;;;;;15.76;100.00;96735.75;5002291;28;20052;-72
2023/07/31 05:42:10;;;;;;;5.57;2.55;;;;;;;15.35;100.00;96742.50;4996687;28;20065;-71
2023/07/31 05:44:35;;;;;;;7.13;3.10;;;;;;;15.64;100.00;96737.69;5001608;28;20042;-70
2023/07/31 05:47:00;;;;;;;7.22;3.25;;;;;;;15.76;100.00;96738.50;5002713;28;20176;-70
2023/07/31 05:49:26;;;;;;;6.18;3.08;;;;;;;16.24;100.00;96744.22;4997912;28;20132;-70
2023/07/31 05:51:51;;;;;;;7.25;3.53;;;;;;;16.15;100.00;96740.28;5001960;28;20068;-70
2023/07/31 05:54:17;;;;;;;7.95;3.45;;;;;;;15.91;100.00;96736.47;4997860;28;20042;-70
2023/07/31 05:56:42;;;;;;;6.43;3.40;;;;;;;15.95;100.00;96742.75;5001900;28;20057;-70
2023/07/31 05:59:09;;;;;;;4.82;2.83;;;;;;;16.11;100.00;96740.31;4998369;28;20545;-71
2023/07/31 06:01:35;;;;;;;9.68;3.40;;;;;;;16.37;100.00;96743.75;5001820;28;20108;-71
2023/07/31 06:04:01;;;;;;;11.38;4.72;;;;;;;16.86;100.00;96743.84;5000373;28;20038;-69
2023/07/31 06:06:27;;;;;;;6.72;3.50;;;;;;;17.25;100.00;96745.47;4997981;28;20527;-70
2023/07/31 06:08:52;;;;;;;8.60;3.30;;;;;;;17.52;100.00;96748.38;5011158;28;20113;-69
2023/07/31 06:11:20;;;;;;;5.68;2.78;;;;;;;17.75;100.00;96745.78;5020445;28;20125;-68
2023/07/31 06:13:46;;;;;;;5.85;2.80;;;;;;;17.05;100.00;96743.28;5020913;28;20074;-69
2023/07/31 06:16:12;;;;;;;7.75;2.75;;;;;;;16.91;100.00;96743.41;4999399;28;20553;-71
2023/07/31 06:18:37;;;;;;;7.10;2.85;;;;;;;17.17;100.00;96742.78;5001175;28;20037;-70
2023/07/31 06:21:03;;;;;;;7.18;3.20;;;;;;;17.47;100.00;96741.31;4997944;28;20037;-70
2023/07/31 06:23:28;;;;;;;5.18;3.00;;;;;;;17.88;100.00;96746.03;4998290;28;20042;-71
2023/07/31 06:25:54;;;;;;;5.68;2.92;;;;;;;18.08;100.00;96740.66;4999729;28;20045;-71
2023/07/31 06:28:19;;;;;;;7.47;2.25;;;;;;;18.26;100.00;96745.97;4994957;28;20554;-71
2023/07/31 06:30:44;;;;;;;7.28;3.00;;;;;;;19.00;100.00;96745.31;4983227;28;20073;-71
2023/07/31 06:33:10;;;;;;;7.68;2.55;;;;;;;20.42;88.24;96756.16;4994657;28;20041;-70
2023/07/31 06:35:35;;;;;;;4.25;1.75;;;;;;;21.68;75.76;96756.75;5002115;28;20049;-71
2023/07/31 06:38:02;;;;;;;4.00;1.83;;;;;;;21.64;75.28;96763.63;4999689;28;20098;-70
2023/07/31 06:40:27;;;;;;;4.28;1.77;;;;;;;21.30;73.74;96764.88;4998141;28;20050;-71
2023/07/31 06:42:53;;;;;;;8.07;1.73;;;;;;;21.05;70.79;96763.50;4999365;28;20435;-70
2023/07/31 06:45:18;;;;;;;10.57;2.08;;;;;;;21.04;72.34;96752.78;4994685;28;20151;-70
2023/07/31 06:47:43;;;;;;;7.00;2.35;;;;;;;20.89;71.29;96750.34;5001384;28;20566;-71
2023/07/31 06:50:09;;;;;;;4.28;1.67;;;;;;;21.25;72.58;96751.47;5000034;28;20038;-71
2023/07/31 06:52:35;;;;;;;9.40;1.88;;;;;;;21.54;69.69;96746.75;5004991;28;20529;-69
2023/07/31 06:55:17;;;;;;;6.38;1.58;;;;;;;20.99;68.61;96738.19;5004668;28;20103;-69
2023/07/31 06:57:43;;;;;;;4.00;1.60;;;;;;;20.59;69.09;96748.63;5004622;28;20046;-69
2023/07/31 07:00:09;;;;;;;8.52;1.48;;;;;;;20.31;71.10;96742.50;4980991;28;20495;-69
2023/07/31 07:02:34;;;;;;;7.25;1.90;;;;;;;20.34;71.25;96749.19;5003555;28;20042;-70
2023/07/31 07:04:59;;;;;;;8.77;1.85;;;;;;;20.15;71.77;96743.22;5004231;28;20038;-70
2023/07/31 07:07:25;;;;;;;6.07;1.50;;;;;;;19.88;73.40;96745.34;4999663;28;20107;-70
2023/07/31 07:09:50;;;;;;;6.35;1.60;;;;;;;19.74;73.49;96749.22;5003590;28;20072;-69
2023/07/31 07:12:16;;;;;;;5.50;1.73;;;;;;;19.41;74.35;96748.97;4999171;28;20041;-68
2023/07/31 07:14:41;;;;;;;9.30;1.77;;;;;;;19.19;76.74;96746.56;5003877;28;20126;-71
2023/07/31 07:17:06;;;;;;;5.43;1.65;;;;;;;18.77;78.15;96743.25;5008642;28;20064;-70
2023/07/31 07:19:32;;;;;;;5.80;1.67;;;;;;;19.05;77.75;96738.47;5004549;28;20084;-71
2023/07/31 07:21:59;;;;;;;5.28;1.77;;;;;;;18.94;76.47;96729.53;5007562;28;20060;-70
2023/07/31 07:24:25;;;;;;;7.65;2.10;;;;;;;19.03;76.03;96721.47;4997632;28;20042;-69
2023/07/31 07:26:50;;;;;;;3.97;1.80;;;;;;;19.34;73.58;96724.91;5022320;28;20422;-70
2023/07/31 07:29:15;;;;;;;5.03;1.75;;;;;;;19.58;71.09;96711.75;5004520;28;20041;-69
2023/07/31 07:31:41;;;;;;;6.55;1.80;;;;;;;20.06;68.69;96723.56;5003642;28;20076;-69
2023/07/31 07:34:06;;;;;;;4.75;1.50;;;;;;;20.49;66.32;96719.03;4999634;28;20045;-70
2023/07/31 07:36:32;;;;;;;10.23;3.95;;;;;;;20.25;67.05;96719.94;5003776;28;20045;-69
2023/07/31 07:38:57;;;;;;;5.57;1.50;;;;;;;20.72;66.78;96710.56;5003938;28;20506;-71
2023/07/31 07:41:23;;;;;;;6.18;1.58;;;;;;;20.95;65.90;96715.19;4997010;28;20446;-69
2023/07/31 07:43:48;;;;;;;9.38;1.67;;;;;;;21.05;63.44;96715.34;5003761;28;20037;-70
2023/07/31 07:46:16;;;;;;;8.38;2.13;;;;;;;20.58;65.10;96720.03;4997954;28;20125;-69
2023/07/31 07:48:41;;;;;;;6.82;2.10;;;;;;;20.22;65.73;96723.59;5001388;28;20530;-71
2023/07/31 07:51:07;;;;;;;4.85;1.80;;;;;;;20.25;65.87;96727.50;4997816;28;20069;-68
2023/07/31 07:53:32;;;;;;;8.43;1.55;;;;;;;20.54;64.44;96727.66;5003408;28;20046;-71
2023/07/31 07:55:58;;;;;;;6.13;2.22;;;;;;;20.59;63.84;96731.94;5003586;28;20069;-71
2023/07/31 07:58:23;;;;;;;3.38;1.58;;;;;;;20.45;64.45;96727.47;5002121;28;20940;-70
2023/07/31 08:00:52;;;;;;;8.20;2.25;;;;;;;20.43;63.52;96727.13;5003092;28;20045;-70
2023/07/31 08:03:18;;;;;;;7.50;2.20;;;;;;;20.33;62.52;96734.50;4999170;28;20072;-70
2023/07/31 08:05:44;;;;;;;7.28;1.90;;;;;;;20.13;63.15;96728.97;5003358;28;20438;-69
2023/07/31 08:08:15;;;;;;;7.05;1.77;;;;;;;20.01;63.92;96729.59;4999794;28;20054;-70
2023/07/31 08:10:40;;;;;;;7.10;1.83;;;;;;;20.84;62.65;96730.59;5003499;28;20106;-70
2023/07/31 08:13:05;;;;;;;4.15;1.83;;;;;;;21.53;59.16;96734.03;4998506;28;20051;-69
2023/07/31 08:15:31;;;;;;;7.20;1.70;;;;;;;21.42;58.51;96730.72;4999406;28;20046;-69
2023/07/31 08:17:56;;;;;;;5.55;2.20;;;;;;;21.02;58.64;96727.38;5005791;28;20080;-69
2023/07/31 08:20:21;;;;;;;6.35;1.90;;;;;;;21.22;58.55;96730.84;5011351;28;20112;-71
2023/07/31 08:22:47;;;;;;;6.78;2.28;;;;;;;21.19;58.16;96728.94;5015409;28;20541;-70
2023/07/31 08:25:12;;;;;;;5.80;1.83;;;;;;;21.36;57.53;96729.72;5004608;28;20505;-71
2023/07/31 08:27:37;;;;;;;7.32;1.67;;;;;;;21.32;58.08;96729.81;5015889;28;20045;-72
2023/07/31 08:30:03;;;;;;;3.50;1.65;;;;;;;22.27;56.16;96721.28;5001591;28;20045;-71
2023/07/31 08:32:29;;;;;;;6.13;2.10;;;;;;;23.28;52.96;96726.47;5002527;28;20048;-70
2023/07/31 08:34:54;;;;;;;7.30;2.25;;;;;;;24.16;50.68;96723.00;5010154;28;20484;-71
2023/07/31 08:37:19;;;;;;;6.18;1.60;;;;;;;24.20;47.97;96732.03;5016338;28;20135;-71
2023/07/31 08:39:45;;;;;;;7.13;1.98;;;;;;;24.86;48.64;96734.72;5005379;28;20045;-71
2023/07/31 08:42:10;;;;;;;4.80;1.60;;;;;;;25.86;45.64;96737.44;4996318;28;20053;-71
2023/07/31 08:44:37;;;;;;;6.20;2.00;;;;;;;26.26;44.94;96742.09;5002207;28;20152;-70
2023/07/31 08:47:02;;;;;;;4.15;1.30;;;;;;;26.94;41.73;96726.88;5000251;28;20042;-71
2023/07/31 08:49:30;;;;;;;6.60;1.75;;;;;;;27.38;41.40;96731.97;4999883;28;20503;-70
2023/07/31 08:51:57;;;;;;;2.65;1.23;;;;;;;25.72;42.77;96733.22;5002142;28;20140;-71
2023/07/31 08:54:23;;;;;;;4.32;1.67;;;;;;;26.10;42.97;96729.94;4997916;28;20147;-70
2023/07/31 08:56:50;;;;;;;5.00;1.40;;;;;;;26.76;41.67;96731.34;5003013;28;20038;-70
2023/07/31 08:59:17;;;;;;;8.75;1.83;;;;;;;26.77;40.08;96723.69;4997259;28;20045;-69
2023/07/31 09:01:48;;;;;;;4.90;1.52;;;;;;;27.75;38.97;96720.44;5001877;28;20045;-71
2023/07/31 09:04:16;;;;;;;4.72;1.40;;;;;;;26.64;38.99;96709.88;4996591;28;20056;-71
2023/07/31 09:06:43;;;;;;;7.20;1.67;;;;;;;26.06;40.66;96703.28;5002017;28;20117;-71
2023/07/31 09:09:09;;;;;;;4.07;1.48;;;;;;;25.98;40.46;96696.44;4997501;28;20030;-70
2023/07/31 09:11:34;;;;;;;5.75;1.65;;;;;;;26.11;40.50;96688.63;5003066;28;20414;-71
2023/07/31 09:14:03;;;;;;;5.68;1.75;;;;;;;27.98;38.00;96697.16;5001248;28;20121;-70
2023/07/31 09:16:31;;;;;;;3.30;1.45;;;;;;;27.95;37.10;96695.28;4999573;28;20038;-71
2023/07/31 09:18:58;;;;;;;6.38;1.60;;;;;;;28.36;36.16;96691.91;4999825;28;20084;-72
2023/07/31 09:21:25;;;;;;;6.20;1.70;;;;;;;28.47;35.49;96692.09;4995684;28;20038;-71
2023/07/31 09:23:53;;;;;;;4.60;1.50;;;;;;;28.62;36.22;96691.34;5000398;28;20133;-71
2023/07/31 09:26:33;;;;;;;6.57;2.08;;;;;;;27.83;37.32;96685.06;4997139;28;20037;-71
2023/07/31 09:29:00;;;;;;;4.97;1.60;;;;;;;27.11;37.46;96696.34;4999810;28;20038;-71
2023/07/31 09:31:38;;;;;;;5.38;1.70;;;;;;;26.60;39.55;96681.16;4996973;28;20041;-71
2023/07/31 09:34:03;;;;;;;5.22;1.60;;;;;;;26.62;38.68;96687.09;4997085;28;20073;-71
2023/07/31 09:36:30;;;;;;;5.32;1.60;;;;;;;26.47;39.26;96682.13;5001266;28;20046;-70
2023/07/31 09:38:56;;;;;;;6.70;1.75;;;;;;;26.39;39.61;96683.69;5000106;28;20501;-71
2023/07/31 09:41:21;;;;;;;8.20;1.70;;;;;;;25.40;41.27;96675.72;4996513;28;20256;-70
2023/07/31 09:43:54;;;;;;;5.78;1.58;;;;;;;25.36;41.96;96675.88;4999867;28;20551;-71
2023/07/31 09:46:20;;;;;;;7.50;2.08;;;;;;;25.31;42.46;96671.66;4996271;28;20495;-70
2023/07/31 09:48:46;;;;;;;5.47;1.63;;;;;;;25.80;42.71;96664.31;5001985;28;20044;-71
2023/07/31 09:51:12;;;;;;;5.75;1.38;;;;;;;26.60;40.72;96675.53;4997600;28;20033;-70
2023/07/31 09:53:37;;;;;;;4.47;1.38;;;;;;;26.97;39.23;96687.38;5000811;28;20487;-70
2023/07/31 09:56:04;;;;;;;8.40;2.35;;;;;;;26.90;38.79;96676.47;4998342;28;20042;-70
2023/07/31 09:58:32;;;;;;;6.85;1.90;;;;;;;26.62;39.32;96670.25;5001655;28;20040;-71
2023/07/31 10:00:59;;;;;;;4.82;1.33;;;;;;;27.35;37.99;96669.06;5001491;28;20602;-70
2023/07/31 10:03:26;;;;;;;5.07;1.83;;;;;;;27.19;38.94;96663.81;4994264;28;20050;-71
2023/07/31 10:05:55;;;;;;;5.78;1.70;;;;;;;26.40;39.79;96657.19;4998958;28;20055;-70
2023/07/31 10:08:26;;;;;;;7.45;1.45;;;;;;;26.68;39.76;96657.84;4996602;28;20050;-71
2023/07/31 10:10:52;;;;;;;7.82;1.60;;;;;;;26.21;40.91;96645.25;5000972;28;20045;-70
2023/07/31 10:13:22;;;;;;;4.32;1.52;;;;;;;26.20;40.42;96642.91;4995440;28;20165;-70
2023/07/31 10:15:47;;;;;;;;;;;;;;;25.87;40.98;96635.94;5001556;28;20050;-71
2023/07/31 10:18:13;;;;;;;7.47;1.80;;;;;;;26.23;40.68;96631.50;5011904;28;19913;-71
2023/07/31 10:20:40;;;;;;;3.28;1.40;;;;;;;26.31;41.05;96635.53;5000482;28;20483;-70
2023/07/31 10:23:06;;;;;;;9.25;1.90;;;;;;;26.64;40.04;96634.03;4994878;28;20045;-70
2023/07/31 10:25:32;;;;;;;5.43;1.55;;;;;;;26.29;39.63;96645.69;5000483;28;20485;-71
2023/07/31 10:27:58;;;;;;;5.18;1.80;;;;;;;26.33;40.65;96638.66;5001761;28;20049;-71
2023/07/31 10:30:29;;;;;;;4.20;1.55;;;;;;;27.12;38.88;96636.06;5001726;28;20096;-70
2023/07/31 10:32:56;;;;;;;4.38;1.60;;;;;;;27.26;39.54;96618.47;5000750;28;20052;-70
2023/07/31 10:35:22;;;;;;;4.03;1.50;;;;;;;27.58;39.03;96614.00;5015100;28;20046;-71
2023/07/31 10:37:48;;;;;;;6.45;2.00;;;;;;;26.89;39.82;96605.47;5014625;28;20049;-71
2023/07/31 10:40:22;;;;;;;6.30;1.58;;;;;;;27.01;39.89;96598.06;4996513;28;20099;-71
2023/07/31 10:42:52;;;;;;;6.32;1.70;;;;;;;27.06;38.88;96588.16;5001525;28;20042;-71
2023/07/31 10:45:32;;;;;;;7.18;1.85;;;;;;;26.10;40.37;96597.25;4996457;28;20069;-70
2023/07/31 10:48:03;;;;;;;7.53;2.15;;;;;;;25.67;42.24;96594.38;5003626;28;20053;-71
2023/07/31 10:50:32;;;;;;;4.88;1.70;;;;;;;25.24;43.42;96589.88;5001610;28;20060;-71
2023/07/31 10:52:58;;;;;;;8.32;2.13;;;;;;;25.32;43.07;96583.53;5006309;28;20510;-72
2023/07/31 10:55:38;;;;;;;6.03;1.70;;;;;;;25.09;44.22;96570.88;5014504;28;20541;-71
2023/07/31 10:58:12;;;;;;;4.43;1.70;;;;;;;25.36;42.69;96563.75;5015667;28;20065;-70
2023/07/31 11:00:42;;;;;;;5.57;1.63;;;;;;;25.64;43.22;96558.88;5004479;28;20103;-71
2023/07/31 11:03:15;;;;;;;5.75;2.08;;;;;;;25.05;43.73;96561.88;4998369;28;20042;-71
2023/07/31 11:05:43;;;;;;;8.18;2.10;;;;;;;25.22;44.29;96548.31;5002129;28;20129;-70
2023/07/31 11:08:24;;;;;;;5.03;1.88;;;;;;;25.05;44.72;96549.88;5000960;28;20053;-71
2023/07/31 11:11:02;;;;;;;5.90;2.22;;;;;;;24.53;45.86;96536.44;5018786;28;20073;-71
2023/07/31 11:13:28;;;;;;;6.38;1.95;;;;;;;24.74;45.06;96526.38;4996510;28;20041;-71
2023/07/31 11:15:54;;;;;;;5.05;2.08;;;;;;;24.99;45.00;96518.88;4991224;28;20561;-70
2023/07/31 11:18:19;;;;;;;6.07;1.70;;;;;;;25.44;44.79;96516.53;5001516;28;20038;-70
2023/07/31 11:20:45;;;;;;;6.07;1.85;;;;;;;24.45;45.29;96523.19;5001851;28;20064;-70
2023/07/31 11:23:11;;;;;;;4.22;1.70;;;;;;;24.29;46.68;96521.44;4995508;28;20065;-70
2023/07/31 11:25:41;;;;;;;4.32;1.80;;;;;;;24.45;45.62;96523.19;5000365;28;20100;-70
2023/07/31 11:28:11;;;;;;;7.30;2.20;;;;;;;24.86;45.43;96519.06;4995604;28;20100;-71